sensor_id;sensor_type;location;lat;lon;timestamp;P1;durP1;ratioP1;P2;durP2;ratioP2
37065;SDS011;22981;43.080;25.550;2022-10-19T00:01:08;14.23;;;10.63;;
37065;SDS011;22981;43.080;25.550;2022-10-19T00:03:40;13.80;;;11.10;;
37065;SDS011;22981;43.080;25.550;2022-10-19T00:06:16;16.17;;;11.48;;
37065;SDS011;22981;43.080;25.550;2022-10-19T00:08:55;16.42;;;10.55;;
37065;SDS011;22981;43.080;25.550;2022-10-19T00:11:24;12.98;;;9.85;;
37065;SDS011;22981;43.080;25.550;2022-10-19T00:13:53;12.78;;;8.80;;
37065;SDS011;22981;43.080;25.550;2022-10-19T00:16:22;12.98;;;7.47;;
37065;SDS011;22981;43.080;25.550;2022-10-19T00:18:54;10.30;;;7.60;;
37065;SDS011;22981;43.080;25.550;2022-10-19T00:21:22;16.90;;;6.87;;
37065;SDS011;22981;43.080;25.550;2022-10-19T00:23:50;10.35;;;7.50;;
37065;SDS011;22981;43.080;25.550;2022-10-19T00:26:18;9.98;;;7.50;;
37065;SDS011;22981;43.080;25.550;2022-10-19T00:28:45;11.63;;;7.28;;
37065;SDS011;22981;43.080;25.550;2022-10-19T00:31:14;10.35;;;7.60;;
37065;SDS011;22981;43.080;25.550;2022-10-19T00:33:43;12.65;;;8.55;;
37065;SDS011;22981;43.080;25.550;2022-10-19T00:36:15;12.98;;;8.63;;
37065;SDS011;22981;43.080;25.550;2022-10-19T00:38:48;10.38;;;8.30;;
37065;SDS011;22981;43.080;25.550;2022-10-19T00:41:16;12.05;;;8.60;;
37065;SDS011;22981;43.080;25.550;2022-10-19T00:43:57;14.38;;;8.53;;
37065;SDS011;22981;43.080;25.550;2022-10-19T00:46:27;15.20;;;9.40;;
37065;SDS011;22981;43.080;25.550;2022-10-19T00:48:58;14.23;;;9.90;;
37065;SDS011;22981;43.080;25.550;2022-10-19T00:51:30;14.45;;;9.90;;
37065;SDS011;22981;43.080;25.550;2022-10-19T00:54:00;15.15;;;9.20;;
37065;SDS011;22981;43.080;25.550;2022-10-19T00:56:29;12.53;;;8.90;;
37065;SDS011;22981;43.080;25.550;2022-10-19T00:58:57;15.10;;;9.35;;
37065;SDS011;22981;43.080;25.550;2022-10-19T01:01:25;14.35;;;10.88;;
37065;SDS011;22981;43.080;25.550;2022-10-19T01:03:54;16.07;;;10.53;;
37065;SDS011;22981;43.080;25.550;2022-10-19T01:06:22;17.05;;;11.80;;
37065;SDS011;22981;43.080;25.550;2022-10-19T01:08:50;14.28;;;11.10;;
37065;SDS011;22981;43.080;25.550;2022-10-19T01:14:15;13.70;;;10.45;;
37065;SDS011;22981;43.080;25.550;2022-10-19T01:25:37;16.80;;;12.13;;
37065;SDS011;22981;43.080;25.550;2022-10-19T01:28:10;15.30;;;11.38;;
37065;SDS011;22981;43.080;25.550;2022-10-19T01:30:43;20.37;;;14.40;;
37065;SDS011;22981;43.080;25.550;2022-10-19T01:33:31;18.70;;;13.50;;
37065;SDS011;22981;43.080;25.550;2022-10-19T01:39:02;16.90;;;11.43;;
37065;SDS011;22981;43.080;25.550;2022-10-19T01:41:27;14.68;;;10.85;;
37065;SDS011;22981;43.080;25.550;2022-10-19T01:44:08;16.80;;;11.25;;
37065;SDS011;22981;43.080;25.550;2022-10-19T01:46:37;15.68;;;11.80;;
37065;SDS011;22981;43.080;25.550;2022-10-19T01:49:11;15.25;;;10.40;;
37065;SDS011;22981;43.080;25.550;2022-10-19T01:51:48;15.05;;;9.70;;
37065;SDS011;22981;43.080;25.550;2022-10-19T01:54:13;10.75;;;8.30;;
37065;SDS011;22981;43.080;25.550;2022-10-19T01:56:43;11.85;;;8.75;;
37065;SDS011;22981;43.080;25.550;2022-10-19T01:59:14;15.25;;;10.35;;
37065;SDS011;22981;43.080;25.550;2022-10-19T02:01:44;14.35;;;8.73;;
37065;SDS011;22981;43.080;25.550;2022-10-19T02:04:15;17.50;;;9.88;;
37065;SDS011;22981;43.080;25.550;2022-10-19T02:06:44;13.03;;;9.20;;
37065;SDS011;22981;43.080;25.550;2022-10-19T02:09:12;12.07;;;9.10;;
37065;SDS011;22981;43.080;25.550;2022-10-19T02:11:46;11.93;;;8.38;;
37065;SDS011;22981;43.080;25.550;2022-10-19T02:16:45;12.73;;;10.15;;
37065;SDS011;22981;43.080;25.550;2022-10-19T02:19:14;18.05;;;10.08;;
37065;SDS011;22981;43.080;25.550;2022-10-19T02:21:43;13.78;;;10.43;;
37065;SDS011;22981;43.080;25.550;2022-10-19T02:24:11;13.70;;;10.85;;
37065;SDS011;22981;43.080;25.550;2022-10-19T02:26:38;15.72;;;11.45;;
37065;SDS011;22981;43.080;25.550;2022-10-19T02:29:07;12.33;;;10.03;;
37065;SDS011;22981;43.080;25.550;2022-10-19T02:31:36;23.42;;;13.65;;
37065;SDS011;22981;43.080;25.550;2022-10-19T02:34:04;80.45;;;40.08;;
37065;SDS011;22981;43.080;25.550;2022-10-19T02:36:32;68.05;;;36.15;;
37065;SDS011;22981;43.080;25.550;2022-10-19T02:39:00;51.42;;;31.00;;
37065;SDS011;22981;43.080;25.550;2022-10-19T02:44:00;37.35;;;20.92;;
37065;SDS011;22981;43.080;25.550;2022-10-19T02:46:39;38.73;;;20.43;;
37065;SDS011;22981;43.080;25.550;2022-10-19T02:49:08;35.35;;;20.77;;
37065;SDS011;22981;43.080;25.550;2022-10-19T02:51:57;25.88;;;16.52;;
37065;SDS011;22981;43.080;25.550;2022-10-19T02:54:23;23.30;;;13.05;;
37065;SDS011;22981;43.080;25.550;2022-10-19T02:56:50;22.25;;;12.82;;
37065;SDS011;22981;43.080;25.550;2022-10-19T02:59:18;15.38;;;10.78;;
37065;SDS011;22981;43.080;25.550;2022-10-19T03:01:45;96.47;;;49.75;;
37065;SDS011;22981;43.080;25.550;2022-10-19T03:04:13;60.43;;;31.30;;
37065;SDS011;22981;43.080;25.550;2022-10-19T03:06:41;56.80;;;31.00;;
37065;SDS011;22981;43.080;25.550;2022-10-19T03:09:09;53.98;;;28.95;;
37065;SDS011;22981;43.080;25.550;2022-10-19T03:11:37;26.82;;;16.57;;
37065;SDS011;22981;43.080;25.550;2022-10-19T03:14:04;15.03;;;10.48;;
37065;SDS011;22981;43.080;25.550;2022-10-19T03:16:32;16.57;;;11.15;;
37065;SDS011;22981;43.080;25.550;2022-10-19T03:18:59;23.52;;;13.25;;
37065;SDS011;22981;43.080;25.550;2022-10-19T03:21:27;17.00;;;11.83;;
37065;SDS011;22981;43.080;25.550;2022-10-19T03:23:54;17.10;;;11.08;;
37065;SDS011;22981;43.080;25.550;2022-10-19T03:26:22;15.30;;;9.98;;
37065;SDS011;22981;43.080;25.550;2022-10-19T03:28:49;14.70;;;10.32;;
37065;SDS011;22981;43.080;25.550;2022-10-19T03:31:17;15.32;;;9.53;;
37065;SDS011;22981;43.080;25.550;2022-10-19T03:33:45;13.68;;;9.53;;
37065;SDS011;22981;43.080;25.550;2022-10-19T03:36:20;16.15;;;10.68;;
37065;SDS011;22981;43.080;25.550;2022-10-19T03:38:53;14.68;;;10.32;;
37065;SDS011;22981;43.080;25.550;2022-10-19T03:41:23;14.23;;;10.08;;
37065;SDS011;22981;43.080;25.550;2022-10-19T03:43:53;17.67;;;11.18;;
37065;SDS011;22981;43.080;25.550;2022-10-19T03:46:21;13.30;;;9.93;;
37065;SDS011;22981;43.080;25.550;2022-10-19T03:48:49;11.08;;;8.33;;
37065;SDS011;22981;43.080;25.550;2022-10-19T03:51:18;17.77;;;10.65;;
37065;SDS011;22981;43.080;25.550;2022-10-19T03:53:53;14.13;;;8.95;;
37065;SDS011;22981;43.080;25.550;2022-10-19T03:56:23;10.88;;;8.58;;
37065;SDS011;22981;43.080;25.550;2022-10-19T03:58:53;11.80;;;7.90;;
37065;SDS011;22981;43.080;25.550;2022-10-19T04:01:23;12.25;;;8.88;;
37065;SDS011;22981;43.080;25.550;2022-10-19T04:03:53;14.30;;;10.40;;
37065;SDS011;22981;43.080;25.550;2022-10-19T04:06:23;38.30;;;18.73;;
37065;SDS011;22981;43.080;25.550;2022-10-19T04:08:55;36.95;;;18.23;;
37065;SDS011;22981;43.080;25.550;2022-10-19T04:11:24;34.60;;;18.35;;
37065;SDS011;22981;43.080;25.550;2022-10-19T04:13:54;24.87;;;14.68;;
37065;SDS011;22981;43.080;25.550;2022-10-19T04:16:23;23.35;;;13.13;;
37065;SDS011;22981;43.080;25.550;2022-10-19T04:18:52;24.05;;;13.78;;
37065;SDS011;22981;43.080;25.550;2022-10-19T04:23:56;14.78;;;10.90;;
37065;SDS011;22981;43.080;25.550;2022-10-19T04:26:26;16.90;;;11.30;;
37065;SDS011;22981;43.080;25.550;2022-10-19T04:28:57;21.12;;;12.30;;
37065;SDS011;22981;43.080;25.550;2022-10-19T04:31:27;18.80;;;12.18;;
37065;SDS011;22981;43.080;25.550;2022-10-19T04:33:55;18.23;;;11.68;;
37065;SDS011;22981;43.080;25.550;2022-10-19T04:36:23;19.00;;;12.68;;
37065;SDS011;22981;43.080;25.550;2022-10-19T04:38:50;21.97;;;12.35;;
37065;SDS011;22981;43.080;25.550;2022-10-19T04:41:19;17.32;;;12.70;;
37065;SDS011;22981;43.080;25.550;2022-10-19T04:43:48;20.32;;;11.90;;
37065;SDS011;22981;43.080;25.550;2022-10-19T04:46:17;15.60;;;11.65;;
37065;SDS011;22981;43.080;25.550;2022-10-19T04:48:47;18.07;;;11.78;;
37065;SDS011;22981;43.080;25.550;2022-10-19T04:51:15;19.65;;;11.93;;
37065;SDS011;22981;43.080;25.550;2022-10-19T04:53:43;21.00;;;13.28;;
37065;SDS011;22981;43.080;25.550;2022-10-19T04:56:12;18.90;;;12.60;;
37065;SDS011;22981;43.080;25.550;2022-10-19T04:58:47;19.85;;;14.03;;
37065;SDS011;22981;43.080;25.550;2022-10-19T05:01:20;24.30;;;14.65;;
37065;SDS011;22981;43.080;25.550;2022-10-19T05:03:45;20.70;;;11.63;;
37065;SDS011;22981;43.080;25.550;2022-10-19T05:06:14;18.50;;;10.68;;
37065;SDS011;22981;43.080;25.550;2022-10-19T05:08:42;14.50;;;9.73;;
37065;SDS011;22981;43.080;25.550;2022-10-19T05:11:13;16.60;;;10.60;;
37065;SDS011;22981;43.080;25.550;2022-10-19T05:13:41;18.17;;;11.40;;
37065;SDS011;22981;43.080;25.550;2022-10-19T05:16:10;19.17;;;12.15;;
37065;SDS011;22981;43.080;25.550;2022-10-19T05:18:40;23.80;;;14.30;;
37065;SDS011;22981;43.080;25.550;2022-10-19T05:21:09;21.70;;;14.68;;
37065;SDS011;22981;43.080;25.550;2022-10-19T05:23:38;22.10;;;16.05;;
37065;SDS011;22981;43.080;25.550;2022-10-19T05:26:07;30.17;;;20.37;;
37065;SDS011;22981;43.080;25.550;2022-10-19T05:28:37;34.70;;;21.12;;
37065;SDS011;22981;43.080;25.550;2022-10-19T05:31:05;31.37;;;20.65;;
37065;SDS011;22981;43.080;25.550;2022-10-19T05:33:35;27.52;;;18.00;;
37065;SDS011;22981;43.080;25.550;2022-10-19T05:38:43;34.92;;;20.52;;
37065;SDS011;22981;43.080;25.550;2022-10-19T05:41:12;29.87;;;19.15;;
37065;SDS011;22981;43.080;25.550;2022-10-19T05:43:40;28.20;;;20.43;;
37065;SDS011;22981;43.080;25.550;2022-10-19T05:46:09;31.60;;;23.40;;
37065;SDS011;22981;43.080;25.550;2022-10-19T05:48:39;26.35;;;18.15;;
37065;SDS011;22981;43.080;25.550;2022-10-19T05:51:08;25.27;;;17.12;;
37065;SDS011;22981;43.080;25.550;2022-10-19T05:53:37;22.58;;;17.23;;
37065;SDS011;22981;43.080;25.550;2022-10-19T05:56:05;19.40;;;15.30;;
37065;SDS011;22981;43.080;25.550;2022-10-19T05:58:35;20.77;;;15.50;;
37065;SDS011;22981;43.080;25.550;2022-10-19T06:01:02;25.45;;;15.80;;
37065;SDS011;22981;43.080;25.550;2022-10-19T06:03:30;18.57;;;14.13;;
37065;SDS011;22981;43.080;25.550;2022-10-19T06:06:00;22.82;;;14.15;;
37065;SDS011;22981;43.080;25.550;2022-10-19T06:08:31;21.23;;;13.48;;
37065;SDS011;22981;43.080;25.550;2022-10-19T06:13:38;24.87;;;17.02;;
37065;SDS011;22981;43.080;25.550;2022-10-19T06:16:08;18.17;;;14.58;;
37065;SDS011;22981;43.080;25.550;2022-10-19T06:18:37;19.75;;;13.60;;
37065;SDS011;22981;43.080;25.550;2022-10-19T06:21:11;20.88;;;13.70;;
37065;SDS011;22981;43.080;25.550;2022-10-19T06:23:35;20.82;;;14.23;;
37065;SDS011;22981;43.080;25.550;2022-10-19T06:26:05;20.40;;;13.68;;
37065;SDS011;22981;43.080;25.550;2022-10-19T06:28:34;18.40;;;12.98;;
37065;SDS011;22981;43.080;25.550;2022-10-19T06:31:03;17.55;;;12.28;;
37065;SDS011;22981;43.080;25.550;2022-10-19T06:33:30;19.30;;;12.45;;
37065;SDS011;22981;43.080;25.550;2022-10-19T06:36:04;19.10;;;11.30;;
37065;SDS011;22981;43.080;25.550;2022-10-19T06:38:37;18.32;;;10.75;;
37065;SDS011;22981;43.080;25.550;2022-10-19T06:41:05;13.75;;;9.93;;
37065;SDS011;22981;43.080;25.550;2022-10-19T06:43:33;12.70;;;9.58;;
37065;SDS011;22981;43.080;25.550;2022-10-19T06:46:09;11.25;;;8.13;;
37065;SDS011;22981;43.080;25.550;2022-10-19T06:48:33;10.95;;;8.18;;
37065;SDS011;22981;43.080;25.550;2022-10-19T06:51:01;12.73;;;8.10;;
37065;SDS011;22981;43.080;25.550;2022-10-19T06:53:30;13.58;;;8.23;;
37065;SDS011;22981;43.080;25.550;2022-10-19T06:55:59;23.62;;;11.85;;
37065;SDS011;22981;43.080;25.550;2022-10-19T06:58:28;35.15;;;15.88;;
37065;SDS011;22981;43.080;25.550;2022-10-19T07:01:00;27.45;;;14.98;;
37065;SDS011;22981;43.080;25.550;2022-10-19T07:03:28;20.33;;;12.30;;
37065;SDS011;22981;43.080;25.550;2022-10-19T07:05:57;21.77;;;12.30;;
37065;SDS011;22981;43.080;25.550;2022-10-19T07:08:26;13.80;;;10.00;;
37065;SDS011;22981;43.080;25.550;2022-10-19T07:10:56;15.25;;;9.53;;
37065;SDS011;22981;43.080;25.550;2022-10-19T07:13:26;20.82;;;10.72;;
37065;SDS011;22981;43.080;25.550;2022-10-19T07:16:00;20.82;;;11.18;;
37065;SDS011;22981;43.080;25.550;2022-10-19T07:18:25;14.18;;;9.00;;
37065;SDS011;22981;43.080;25.550;2022-10-19T07:20:54;16.65;;;9.38;;
37065;SDS011;22981;43.080;25.550;2022-10-19T07:23:23;17.87;;;9.03;;
37065;SDS011;22981;43.080;25.550;2022-10-19T07:25:52;13.70;;;8.73;;
37065;SDS011;22981;43.080;25.550;2022-10-19T07:28:23;13.30;;;8.48;;
37065;SDS011;22981;43.080;25.550;2022-10-19T07:30:50;11.40;;;8.85;;
37065;SDS011;22981;43.080;25.550;2022-10-19T07:33:18;13.40;;;8.10;;
37065;SDS011;22981;43.080;25.550;2022-10-19T07:35:45;10.38;;;7.67;;
37065;SDS011;22981;43.080;25.550;2022-10-19T07:38:13;74.50;;;38.15;;
37065;SDS011;22981;43.080;25.550;2022-10-19T07:40:40;12.98;;;8.53;;
37065;SDS011;22981;43.080;25.550;2022-10-19T07:43:08;39.75;;;19.77;;
37065;SDS011;22981;43.080;25.550;2022-10-19T07:45:35;19.00;;;15.20;;
37065;SDS011;22981;43.080;25.550;2022-10-19T07:48:03;13.48;;;8.70;;
37065;SDS011;22981;43.080;25.550;2022-10-19T07:50:31;13.40;;;7.75;;
37065;SDS011;22981;43.080;25.550;2022-10-19T07:52:58;9.58;;;6.08;;
37065;SDS011;22981;43.080;25.550;2022-10-19T07:55:27;13.98;;;6.00;;
37065;SDS011;22981;43.080;25.550;2022-10-19T07:57:55;9.45;;;5.78;;
37065;SDS011;22981;43.080;25.550;2022-10-19T08:00:24;7.12;;;5.83;;
37065;SDS011;22981;43.080;25.550;2022-10-19T08:02:52;5.92;;;5.33;;
37065;SDS011;22981;43.080;25.550;2022-10-19T08:05:19;7.65;;;5.78;;
37065;SDS011;22981;43.080;25.550;2022-10-19T08:07:47;8.90;;;5.40;;
37065;SDS011;22981;43.080;25.550;2022-10-19T08:10:14;7.22;;;5.12;;
37065;SDS011;22981;43.080;25.550;2022-10-19T08:12:42;11.65;;;5.70;;
37065;SDS011;22981;43.080;25.550;2022-10-19T08:15:10;9.35;;;5.15;;
37065;SDS011;22981;43.080;25.550;2022-10-19T08:17:37;7.25;;;4.67;;
37065;SDS011;22981;43.080;25.550;2022-10-19T08:20:05;6.35;;;5.00;;
37065;SDS011;22981;43.080;25.550;2022-10-19T08:22:34;6.40;;;4.50;;
37065;SDS011;22981;43.080;25.550;2022-10-19T08:25:01;6.90;;;4.10;;
37065;SDS011;22981;43.080;25.550;2022-10-19T08:27:29;10.38;;;4.08;;
37065;SDS011;22981;43.080;25.550;2022-10-19T08:29:56;7.87;;;4.55;;
37065;SDS011;22981;43.080;25.550;2022-10-19T08:32:24;9.15;;;4.60;;
37065;SDS011;22981;43.080;25.550;2022-10-19T08:34:51;7.62;;;3.50;;
37065;SDS011;22981;43.080;25.550;2022-10-19T08:37:19;7.37;;;4.10;;
37065;SDS011;22981;43.080;25.550;2022-10-19T08:39:46;5.53;;;3.77;;
37065;SDS011;22981;43.080;25.550;2022-10-19T08:42:26;7.12;;;3.60;;
37065;SDS011;22981;43.080;25.550;2022-10-19T08:50:17;6.60;;;3.42;;
37065;SDS011;22981;43.080;25.550;2022-10-19T08:52:51;9.80;;;4.00;;
37065;SDS011;22981;43.080;25.550;2022-10-19T08:55:25;7.10;;;3.47;;
37065;SDS011;22981;43.080;25.550;2022-10-19T09:03:32;6.92;;;3.25;;
37065;SDS011;22981;43.080;25.550;2022-10-19T09:08:33;5.65;;;3.05;;
37065;SDS011;22981;43.080;25.550;2022-10-19T09:11:03;3.27;;;2.45;;
37065;SDS011;22981;43.080;25.550;2022-10-19T09:13:36;3.55;;;2.55;;
37065;SDS011;22981;43.080;25.550;2022-10-19T09:16:10;5.05;;;2.60;;
37065;SDS011;22981;43.080;25.550;2022-10-19T09:18:41;2.87;;;2.05;;
37065;SDS011;22981;43.080;25.550;2022-10-19T09:21:13;5.10;;;2.40;;
37065;SDS011;22981;43.080;25.550;2022-10-19T09:23:50;5.22;;;2.22;;
37065;SDS011;22981;43.080;25.550;2022-10-19T09:26:35;3.75;;;2.45;;
37065;SDS011;22981;43.080;25.550;2022-10-19T09:29:20;6.92;;;2.70;;
37065;SDS011;22981;43.080;25.550;2022-10-19T09:32:09;6.25;;;2.10;;
37065;SDS011;22981;43.080;25.550;2022-10-19T09:35:00;5.72;;;2.98;;
37065;SDS011;22981;43.080;25.550;2022-10-19T09:37:27;3.72;;;2.10;;
37065;SDS011;22981;43.080;25.550;2022-10-19T09:39:55;4.03;;;2.12;;
37065;SDS011;22981;43.080;25.550;2022-10-19T09:42:27;5.22;;;2.50;;
37065;SDS011;22981;43.080;25.550;2022-10-19T09:44:58;4.12;;;2.27;;
37065;SDS011;22981;43.080;25.550;2022-10-19T09:47:32;5.45;;;2.35;;
37065;SDS011;22981;43.080;25.550;2022-10-19T09:52:51;4.42;;;2.12;;
37065;SDS011;22981;43.080;25.550;2022-10-19T09:57:58;8.05;;;2.55;;
37065;SDS011;22981;43.080;25.550;2022-10-19T10:00:31;4.05;;;2.30;;
37065;SDS011;22981;43.080;25.550;2022-10-19T10:05:36;8.38;;;3.10;;
37065;SDS011;22981;43.080;25.550;2022-10-19T10:08:13;3.45;;;2.50;;
37065;SDS011;22981;43.080;25.550;2022-10-19T10:10:43;5.97;;;2.45;;
37065;SDS011;22981;43.080;25.550;2022-10-19T10:13:19;7.28;;;2.80;;
37065;SDS011;22981;43.080;25.550;2022-10-19T10:15:47;4.65;;;2.65;;
37065;SDS011;22981;43.080;25.550;2022-10-19T10:21:03;5.47;;;3.25;;
37065;SDS011;22981;43.080;25.550;2022-10-19T10:23:38;4.30;;;2.37;;
37065;SDS011;22981;43.080;25.550;2022-10-19T10:26:14;5.17;;;2.65;;
37065;SDS011;22981;43.080;25.550;2022-10-19T10:28:45;3.30;;;2.20;;
37065;SDS011;22981;43.080;25.550;2022-10-19T10:31:10;4.87;;;2.47;;
37065;SDS011;22981;43.080;25.550;2022-10-19T10:33:37;9.60;;;2.92;;
37065;SDS011;22981;43.080;25.550;2022-10-19T10:36:07;4.22;;;2.70;;
37065;SDS011;22981;43.080;25.550;2022-10-19T10:38:40;4.05;;;2.10;;
37065;SDS011;22981;43.080;25.550;2022-10-19T10:41:10;6.45;;;2.12;;
37065;SDS011;22981;43.080;25.550;2022-10-19T10:43:48;2.90;;;1.95;;
37065;SDS011;22981;43.080;25.550;2022-10-19T10:46:18;6.30;;;2.00;;
37065;SDS011;22981;43.080;25.550;2022-10-19T10:48:57;2.85;;;2.10;;
37065;SDS011;22981;43.080;25.550;2022-10-19T10:51:49;4.78;;;1.90;;
37065;SDS011;22981;43.080;25.550;2022-10-19T10:54:14;4.40;;;2.12;;
37065;SDS011;22981;43.080;25.550;2022-10-19T10:56:42;4.30;;;1.80;;
37065;SDS011;22981;43.080;25.550;2022-10-19T10:59:13;3.45;;;1.72;;
37065;SDS011;22981;43.080;25.550;2022-10-19T11:02:00;5.67;;;2.30;;
37065;SDS011;22981;43.080;25.550;2022-10-19T11:04:30;3.52;;;2.22;;
37065;SDS011;22981;43.080;25.550;2022-10-19T11:07:00;3.87;;;2.10;;
37065;SDS011;22981;43.080;25.550;2022-10-19T11:09:35;3.37;;;1.77;;
37065;SDS011;22981;43.080;25.550;2022-10-19T11:12:12;2.30;;;2.07;;
37065;SDS011;22981;43.080;25.550;2022-10-19T11:14:48;6.67;;;2.30;;
37065;SDS011;22981;43.080;25.550;2022-10-19T11:17:21;6.67;;;2.47;;
37065;SDS011;22981;43.080;25.550;2022-10-19T11:19:54;8.23;;;2.12;;
37065;SDS011;22981;43.080;25.550;2022-10-19T11:22:24;6.15;;;2.05;;
37065;SDS011;22981;43.080;25.550;2022-10-19T11:25:31;6.28;;;2.12;;
37065;SDS011;22981;43.080;25.550;2022-10-19T11:28:21;3.05;;;2.20;;
37065;SDS011;22981;43.080;25.550;2022-10-19T11:30:56;3.55;;;2.00;;
37065;SDS011;22981;43.080;25.550;2022-10-19T11:33:31;7.60;;;2.25;;
37065;SDS011;22981;43.080;25.550;2022-10-19T11:35:58;6.20;;;2.15;;
37065;SDS011;22981;43.080;25.550;2022-10-19T11:44:19;4.45;;;2.20;;
37065;SDS011;22981;43.080;25.550;2022-10-19T11:46:59;4.85;;;2.35;;
37065;SDS011;22981;43.080;25.550;2022-10-19T11:49:54;5.12;;;2.22;;
37065;SDS011;22981;43.080;25.550;2022-10-19T11:55:34;3.05;;;1.95;;
37065;SDS011;22981;43.080;25.550;2022-10-19T11:58:26;4.55;;;1.90;;
37065;SDS011;22981;43.080;25.550;2022-10-19T12:01:03;4.87;;;1.98;;
37065;SDS011;22981;43.080;25.550;2022-10-19T12:03:35;6.35;;;2.12;;
37065;SDS011;22981;43.080;25.550;2022-10-19T12:09:02;4.62;;;2.40;;
37065;SDS011;22981;43.080;25.550;2022-10-19T12:11:38;4.95;;;2.20;;
37065;SDS011;22981;43.080;25.550;2022-10-19T12:14:27;9.08;;;5.10;;
37065;SDS011;22981;43.080;25.550;2022-10-19T12:16:53;35.25;;;21.50;;
37065;SDS011;22981;43.080;25.550;2022-10-19T12:19:24;25.60;;;14.43;;
37065;SDS011;22981;43.080;25.550;2022-10-19T12:22:03;14.63;;;5.85;;
37065;SDS011;22981;43.080;25.550;2022-10-19T12:26:54;12.30;;;5.03;;
37065;SDS011;22981;43.080;25.550;2022-10-19T12:29:33;9.20;;;4.40;;
37065;SDS011;22981;43.080;25.550;2022-10-19T12:32:02;9.65;;;3.85;;
37065;SDS011;22981;43.080;25.550;2022-10-19T12:37:24;6.00;;;2.98;;
37065;SDS011;22981;43.080;25.550;2022-10-19T12:45:24;6.20;;;2.80;;
37065;SDS011;22981;43.080;25.550;2022-10-19T12:53:21;5.33;;;2.33;;
37065;SDS011;22981;43.080;25.550;2022-10-19T13:01:14;9.23;;;3.25;;
37065;SDS011;22981;43.080;25.550;2022-10-19T13:03:44;4.87;;;2.77;;
37065;SDS011;22981;43.080;25.550;2022-10-19T13:06:15;5.83;;;2.52;;
37065;SDS011;22981;43.080;25.550;2022-10-19T13:08:53;6.83;;;2.50;;
37065;SDS011;22981;43.080;25.550;2022-10-19T13:11:15;8.95;;;2.80;;
37065;SDS011;22981;43.080;25.550;2022-10-19T13:13:59;9.43;;;2.95;;
37065;SDS011;22981;43.080;25.550;2022-10-19T13:24:25;7.50;;;3.70;;
37065;SDS011;22981;43.080;25.550;2022-10-19T13:43:19;5.33;;;2.30;;
37065;SDS011;22981;43.080;25.550;2022-10-19T13:51:14;4.85;;;2.67;;
37065;SDS011;22981;43.080;25.550;2022-10-19T13:53:59;2.55;;;2.15;;
37065;SDS011;22981;43.080;25.550;2022-10-19T13:56:36;3.67;;;2.30;;
37065;SDS011;22981;43.080;25.550;2022-10-19T14:07:48;4.67;;;2.42;;
37065;SDS011;22981;43.080;25.550;2022-10-19T14:10:31;10.15;;;3.75;;
37065;SDS011;22981;43.080;25.550;2022-10-19T14:13:01;3.95;;;2.55;;
37065;SDS011;22981;43.080;25.550;2022-10-19T14:15:32;4.92;;;2.83;;
37065;SDS011;22981;43.080;25.550;2022-10-19T14:18:00;4.53;;;2.50;;
37065;SDS011;22981;43.080;25.550;2022-10-19T14:20:35;3.95;;;2.75;;
37065;SDS011;22981;43.080;25.550;2022-10-19T14:23:19;5.58;;;2.67;;
37065;SDS011;22981;43.080;25.550;2022-10-19T14:25:56;5.47;;;2.10;;
37065;SDS011;22981;43.080;25.550;2022-10-19T14:28:28;2.95;;;2.15;;
37065;SDS011;22981;43.080;25.550;2022-10-19T14:30:58;7.55;;;2.35;;
37065;SDS011;22981;43.080;25.550;2022-10-19T14:33:28;5.28;;;2.85;;
37065;SDS011;22981;43.080;25.550;2022-10-19T14:36:12;3.02;;;2.27;;
37065;SDS011;22981;43.080;25.550;2022-10-19T14:38:41;4.97;;;2.58;;
37065;SDS011;22981;43.080;25.550;2022-10-19T14:41:20;5.65;;;2.52;;
37065;SDS011;22981;43.080;25.550;2022-10-19T14:43:49;8.75;;;2.47;;
37065;SDS011;22981;43.080;25.550;2022-10-19T14:46:16;7.87;;;4.30;;
37065;SDS011;22981;43.080;25.550;2022-10-19T14:48:48;16.87;;;8.00;;
37065;SDS011;22981;43.080;25.550;2022-10-19T14:51:27;41.60;;;23.77;;
37065;SDS011;22981;43.080;25.550;2022-10-19T14:56:49;99.80;;;49.53;;
37065;SDS011;22981;43.080;25.550;2022-10-19T14:59:25;81.78;;;37.73;;
37065;SDS011;22981;43.080;25.550;2022-10-19T15:01:59;42.58;;;21.07;;
37065;SDS011;22981;43.080;25.550;2022-10-19T15:04:29;23.38;;;12.30;;
37065;SDS011;22981;43.080;25.550;2022-10-19T15:07:00;17.23;;;8.75;;
37065;SDS011;22981;43.080;25.550;2022-10-19T15:09:35;16.15;;;6.80;;
37065;SDS011;22981;43.080;25.550;2022-10-19T15:12:05;9.48;;;5.60;;
37065;SDS011;22981;43.080;25.550;2022-10-19T15:14:33;12.55;;;5.40;;
37065;SDS011;22981;43.080;25.550;2022-10-19T15:17:03;9.95;;;4.35;;
37065;SDS011;22981;43.080;25.550;2022-10-19T15:19:33;9.63;;;4.22;;
37065;SDS011;22981;43.080;25.550;2022-10-19T15:24:36;9.65;;;5.70;;
37065;SDS011;22981;43.080;25.550;2022-10-19T15:27:17;13.43;;;8.03;;
37065;SDS011;22981;43.080;25.550;2022-10-19T15:29:53;12.85;;;6.42;;
37065;SDS011;22981;43.080;25.550;2022-10-19T15:32:33;12.30;;;6.70;;
37065;SDS011;22981;43.080;25.550;2022-10-19T15:35:09;11.40;;;5.40;;
37065;SDS011;22981;43.080;25.550;2022-10-19T15:38:06;13.95;;;5.67;;
37065;SDS011;22981;43.080;25.550;2022-10-19T15:40:56;12.03;;;5.33;;
37065;SDS011;22981;43.080;25.550;2022-10-19T15:46:06;14.23;;;6.70;;
37065;SDS011;22981;43.080;25.550;2022-10-19T15:53:54;12.47;;;8.20;;
37065;SDS011;22981;43.080;25.550;2022-10-19T15:56:26;15.90;;;8.30;;
37065;SDS011;22981;43.080;25.550;2022-10-19T15:58:55;18.05;;;9.28;;
37065;SDS011;22981;43.080;25.550;2022-10-19T16:01:25;22.58;;;10.38;;
37065;SDS011;22981;43.080;25.550;2022-10-19T16:03:55;23.83;;;14.07;;
37065;SDS011;22981;43.080;25.550;2022-10-19T16:06:24;37.93;;;22.98;;
37065;SDS011;22981;43.080;25.550;2022-10-19T16:08:54;33.05;;;20.75;;
37065;SDS011;22981;43.080;25.550;2022-10-19T16:11:23;16.77;;;12.43;;
37065;SDS011;22981;43.080;25.550;2022-10-19T16:13:51;19.15;;;12.18;;
37065;SDS011;22981;43.080;25.550;2022-10-19T16:16:20;24.20;;;12.98;;
37065;SDS011;22981;43.080;25.550;2022-10-19T16:18:49;19.73;;;13.32;;
37065;SDS011;22981;43.080;25.550;2022-10-19T16:21:19;15.90;;;10.15;;
37065;SDS011;22981;43.080;25.550;2022-10-19T16:23:47;15.45;;;9.78;;
37065;SDS011;22981;43.080;25.550;2022-10-19T16:26:16;16.45;;;14.25;;
37065;SDS011;22981;43.080;25.550;2022-10-19T16:28:43;17.00;;;12.53;;
37065;SDS011;22981;43.080;25.550;2022-10-19T16:31:13;12.50;;;8.18;;
37065;SDS011;22981;43.080;25.550;2022-10-19T16:33:41;12.95;;;7.92;;
37065;SDS011;22981;43.080;25.550;2022-10-19T16:36:09;12.70;;;8.40;;
37065;SDS011;22981;43.080;25.550;2022-10-19T16:38:37;21.10;;;15.15;;
37065;SDS011;22981;43.080;25.550;2022-10-19T16:41:06;15.00;;;13.35;;
37065;SDS011;22981;43.080;25.550;2022-10-19T16:43:35;14.23;;;11.68;;
37065;SDS011;22981;43.080;25.550;2022-10-19T16:46:04;14.15;;;10.80;;
37065;SDS011;22981;43.080;25.550;2022-10-19T16:48:31;16.85;;;10.00;;
37065;SDS011;22981;43.080;25.550;2022-10-19T16:53:36;10.93;;;8.88;;
37065;SDS011;22981;43.080;25.550;2022-10-19T16:56:05;14.87;;;9.63;;
37065;SDS011;22981;43.080;25.550;2022-10-19T16:58:34;13.93;;;9.28;;
37065;SDS011;22981;43.080;25.550;2022-10-19T17:01:05;13.45;;;8.58;;
37065;SDS011;22981;43.080;25.550;2022-10-19T17:03:33;10.15;;;8.43;;